Time;durP1;ratioP1;P1;durP2;ratioP2;P2;SDS_P1;SDS_P2;PMS_P1;PMS_P2;Temp;Humidity;BMP_temperature;BMP_pressure;BME280_temperature;BME280_humidity;BME280_pressure;Samples;Min_cycle;Max_cycle;Signal;HPM_P1;HPM_P2
2022/12/26 00:00:47;;;;;;;;;5.00;3.33;;;;;;;;5051991;28;45469;-73
2022/12/26 00:03:12;;;;;;;;;4.00;3.00;;;;;;;;5056678;28;45257;-73
2022/12/26 00:05:37;;;;;;;;;3.00;2.00;;;;;;;;5054344;28;45359;-73
2022/12/26 00:08:03;;;;;;;;;2.67;2.67;;;;;;;;5056873;28;45193;-72
2022/12/26 00:10:28;;;;;;;;;7.00;4.00;;;;;;;;5044795;28;45277;-73
2022/12/26 00:12:53;;;;;;;;;2.00;2.00;;;;;;;;5038686;28;46845;-72
2022/12/26 00:15:18;;;;;;;;;1.67;1.67;;;;;;;;5045776;28;45238;-73
2022/12/26 00:17:44;;;;;;;;;7.33;2.67;;;;;;;;5056862;28;45246;-73
2022/12/26 00:20:09;;;;;;;;;2.33;2.00;;;;;;;;5036741;28;45425;-73
2022/12/26 00:22:34;;;;;;;;;1.00;1.00;;;;;;;;5056805;28;45392;-72
2022/12/26 00:24:59;;;;;;;;;2.00;2.00;;;;;;;;5052238;28;46273;-73
2022/12/26 00:27:25;;;;;;;;;1.00;1.00;;;;;;;;5057491;28;45265;-73
2022/12/26 00:29:50;;;;;;;;;3.33;2.00;;;;;;;;5054693;28;45274;-73
2022/12/26 00:32:15;;;;;;;;;3.00;3.00;;;;;;;;5058160;28;45469;-73
2022/12/26 00:34:40;;;;;;;;;6.33;3.33;;;;;;;;5052235;28;45363;-73
2022/12/26 00:37:05;;;;;;;;;3.33;3.33;;;;;;;;5058166;28;45321;-73
2022/12/26 00:39:31;;;;;;;;;3.00;3.00;;;;;;;;5053044;28;45748;-72
2022/12/26 00:41:56;;;;;;;;;4.00;4.00;;;;;;;;5043038;28;46289;-73
2022/12/26 00:44:21;;;;;;;;;5.00;4.67;;;;;;;;5038469;28;47087;-72
2022/12/26 00:46:46;;;;;;;;;7.00;4.00;;;;;;;;5058335;28;45314;-73
2022/12/26 00:49:11;;;;;;;;;5.33;5.00;;;;;;;;5057235;28;45394;-73
2022/12/26 00:51:37;;;;;;;;;4.67;4.00;;;;;;;;5042751;28;46783;-72
2022/12/26 00:54:02;;;;;;;;;5.00;4.00;;;;;;;;5049606;28;45264;-72
2022/12/26 00:56:27;;;;;;;;;6.33;6.33;;;;;;;;5052438;28;45306;-73
2022/12/26 00:58:52;;;;;;;;;4.33;4.33;;;;;;;;5054385;28;45242;-73
2022/12/26 01:01:19;;;;;;;;;6.00;5.00;;;;;;;;5058580;28;45202;-73
2022/12/26 01:03:45;;;;;;;;;7.67;6.67;;;;;;;;5036067;28;47140;-73
2022/12/26 01:06:12;;;;;;;;;6.00;3.00;;;;;;;;5055345;28;45226;-74
2022/12/26 01:08:37;;;;;;;;;6.00;4.00;;;;;;;;5051335;28;45590;-75
2022/12/26 01:11:07;;;;;;;;;10.33;4.00;;;;;;;;5046739;28;45206;-76
2022/12/26 01:13:32;;;;;;;;;4.00;4.00;;;;;;;;5043550;28;46115;-77
2022/12/26 01:15:57;;;;;;;;;6.00;3.33;;;;;;;;5055008;28;45280;-76
2022/12/26 01:18:23;;;;;;;;;4.00;4.00;;;;;;;;5057691;28;45498;-76
2022/12/26 01:20:48;;;;;;;;;6.33;6.00;;;;;;;;5056541;28;45507;-76
2022/12/26 01:23:14;;;;;;;;;6.00;5.00;;;;;;;;5037466;28;47950;-76
2022/12/26 01:25:39;;;;;;;;;8.33;5.00;;;;;;;;5049593;28;45265;-75
2022/12/26 01:28:05;;;;;;;;;5.00;5.00;;;;;;;;5056867;28;45396;-77
2022/12/26 01:30:30;;;;;;;;;6.00;6.00;;;;;;;;5050516;28;45456;-76
2022/12/26 01:32:55;;;;;;;;;5.00;3.67;;;;;;;;5057242;28;46070;-76
2022/12/26 01:35:20;;;;;;;;;3.00;3.00;;;;;;;;5056974;28;45292;-76
2022/12/26 01:37:46;;;;;;;;;5.67;5.67;;;;;;;;5047540;28;47013;-76
2022/12/26 01:40:11;;;;;;;;;10.33;7.00;;;;;;;;5045343;28;45246;-76
2022/12/26 01:42:37;;;;;;;;;5.67;5.33;;;;;;;;5039976;28;47056;-77
2022/12/26 01:45:03;;;;;;;;;4.00;4.00;;;;;;;;5047032;28;45238;-76
2022/12/26 01:47:47;;;;;;;;;4.00;3.33;;;;;;;;5041550;28;45240;-77
2022/12/26 01:50:23;;;;;;;;;5.67;5.00;;;;;;;;5049139;28;45187;-77
2022/12/26 01:52:48;;;;;;;;;7.67;4.00;;;;;;;;5039884;28;47458;-77
2022/12/26 01:55:16;;;;;;;;;4.33;3.00;;;;;;;;5040781;28;44602;-77
2022/12/26 01:57:43;;;;;;;;;6.00;3.00;;;;;;;;5032251;28;47742;-77
2022/12/26 02:00:09;;;;;;;;;2.67;2.67;;;;;;;;5030299;28;45436;-77
2022/12/26 02:05:32;;;;;;;;;4.33;3.00;;;;;;;;5054881;28;45328;-77
2022/12/26 02:05:36;;;;;;;;;5.00;4.00;;;;;;;;5052397;28;45533;-77
2022/12/26 02:08:03;;;;;;;;;2.00;2.00;;;;;;;;5056738;28;45338;-77
2022/12/26 02:10:30;;;;;;;;;4.00;2.00;;;;;;;;5044795;28;45479;-77
2022/12/26 02:12:56;;;;;;;;;3.00;3.00;;;;;;;;5056384;28;46156;-76
2022/12/26 02:15:22;;;;;;;;;4.00;3.00;;;;;;;;5048526;28;45204;-74
2022/12/26 02:17:47;;;;;;;;;2.67;2.67;;;;;;;;5056271;28;45256;-74
2022/12/26 02:20:18;;;;;;;;;8.00;4.00;;;;;;;;5049656;28;45233;-75
2022/12/26 02:22:46;;;;;;;;;1.00;1.00;;;;;;;;5055955;28;45514;-75
2022/12/26 02:25:30;;;;;;;;;4.00;3.00;;;;;;;;5049871;28;45179;-76
2022/12/26 02:28:14;;;;;;;;;4.33;2.67;;;;;;;;5056647;28;45312;-76
2022/12/26 02:31:01;;;;;;;;;3.00;2.00;;;;;;;;5051403;28;45441;-76
2022/12/26 02:33:38;;;;;;;;;1.67;1.67;;;;;;;;5053274;28;45633;-76
2022/12/26 02:36:03;;;;;;;;;2.00;2.00;;;;;;;;5054076;28;46277;-76
2022/12/26 02:38:31;;;;;;;;;2.67;1.00;;;;;;;;5053606;28;45499;-76
2022/12/26 02:41:02;;;;;;;;;2.00;2.00;;;;;;;;5048777;28;45329;-77
2022/12/26 02:43:28;;;;;;;;;5.33;3.00;;;;;;;;5048178;28;45295;-77
2022/12/26 02:49:15;;;;;;;;;2.00;2.00;;;;;;;;5045823;28;45461;-77
2022/12/26 03:14:46;;;;;;;;;3.33;1.67;;;;;;;;5053913;28;45650;-77
2022/12/26 03:17:27;;;;;;;;;2.00;2.00;;;;;;;;5058181;28;45337;-77
2022/12/26 03:19:58;;;;;;;;;1.00;1.00;;;;;;;;5052532;28;63425;-77
2022/12/26 03:22:43;;;;;;;;;1.00;1.00;;;;;;;;5060633;28;45324;-77
2022/12/26 03:28:00;;;;;;;;;1.00;1.00;;;;;;;;5054914;28;45382;-77
2022/12/26 03:34:15;;;;;;;;;1.00;1.00;;;;;;;;5058837;28;45297;-78
2022/12/26 03:35:55;;;;;;;;;1.00;1.00;;;;;;;;5057111;28;45150;-77
2022/12/26 03:38:29;;;;;;;;;5.00;1.00;;;;;;;;5042263;28;47110;-77
2022/12/26 04:21:04;;;;;;;;;0.00;0.00;;;;;;;;5051888;28;45258;-77
2022/12/26 04:45:55;;;;;;;;;2.00;0.67;;;;;;;;5056819;28;45238;-77
2022/12/26 04:51:04;;;;;;;;;0.00;0.00;;;;;;;;5060873;28;45395;-77
2022/12/26 04:53:29;;;;;;;;;2.67;1.00;;;;;;;;5054501;28;45315;-77
2022/12/26 04:55:54;;;;;;;;;0.00;0.00;;;;;;;;5047741;28;46430;-77
2022/12/26 04:58:23;;;;;;;;;1.00;1.00;;;;;;;;5055970;28;45471;-77
2022/12/26 05:00:48;;;;;;;;;0.00;0.00;;;;;;;;5053214;28;45332;-77
2022/12/26 05:11:27;;;;;;;;;1.00;1.00;;;;;;;;5059282;28;45309;-78
2022/12/26 05:13:53;;;;;;;;;1.00;1.00;;;;;;;;5041034;28;45331;-77
2022/12/26 05:30:02;;;;;;;;;2.00;0.00;;;;;;;;5056624;28;45437;-77
2022/12/26 05:35:11;;;;;;;;;0.00;0.00;;;;;;;;5054244;28;45369;-77
2022/12/26 05:37:36;;;;;;;;;0.33;0.33;;;;;;;;5059024;28;46279;-77
2022/12/26 05:40:01;;;;;;;;;1.00;1.00;;;;;;;;5051890;28;45257;-77
2022/12/26 05:42:27;;;;;;;;;3.00;0.00;;;;;;;;5060349;28;45509;-77
2022/12/26 05:44:52;;;;;;;;;0.33;0.33;;;;;;;;5049157;28;45239;-77
2022/12/26 05:47:17;;;;;;;;;1.00;1.00;;;;;;;;5060479;28;45227;-77
2022/12/26 05:49:42;;;;;;;;;1.00;1.00;;;;;;;;5052814;28;45469;-77
2022/12/26 05:52:07;;;;;;;;;1.00;1.00;;;;;;;;5060507;28;45218;-77
2022/12/26 05:54:33;;;;;;;;;2.00;2.00;;;;;;;;5036941;28;46974;-77
2022/12/26 05:56:58;;;;;;;;;1.00;1.00;;;;;;;;5036571;28;46461;-77
2022/12/26 05:59:24;;;;;;;;;1.00;1.00;;;;;;;;5046331;28;45203;-77
2022/12/26 06:01:49;;;;;;;;;1.00;0.00;;;;;;;;5048373;28;45182;-76
2022/12/26 06:04:14;;;;;;;;;1.00;1.00;;;;;;;;5041159;28;47335;-77
2022/12/26 06:06:39;;;;;;;;;0.00;0.00;;;;;;;;5031562;28;46886;-77
2022/12/26 06:09:05;;;;;;;;;1.00;1.00;;;;;;;;5051701;28;45289;-77
2022/12/26 06:11:30;;;;;;;;;2.00;0.67;;;;;;;;5032199;28;45172;-78
2022/12/26 06:13:55;;;;;;;;;1.00;1.00;;;;;;;;5037931;28;47008;-77
2022/12/26 06:16:20;;;;;;;;;2.67;1.00;;;;;;;;5032781;28;45329;-77
2022/12/26 06:18:47;;;;;;;;;1.00;1.00;;;;;;;;5034924;28;46879;-77
2022/12/26 06:21:17;;;;;;;;;1.00;1.00;;;;;;;;5034555;28;45451;-76
2022/12/26 06:23:42;;;;;;;;;2.33;1.00;;;;;;;;5052839;28;45468;-77
2022/12/26 06:26:08;;;;;;;;;2.00;0.67;;;;;;;;5035088;28;48162;-77
2022/12/26 06:28:34;;;;;;;;;1.00;1.00;;;;;;;;5052738;28;45388;-77
2022/12/26 06:31:06;;;;;;;;;0.67;0.67;;;;;;;;5054197;28;45198;-77
2022/12/26 06:33:32;;;;;;;;;1.67;0.00;;;;;;;;5055657;28;45368;-77
2022/12/26 06:36:07;;;;;;;;;1.00;1.00;;;;;;;;5055167;28;45276;-77
2022/12/26 06:38:33;;;;;;;;;3.00;0.67;;;;;;;;5052679;28;46570;-77
2022/12/26 06:40:58;;;;;;;;;0.00;0.00;;;;;;;;5049428;28;45428;-76
2022/12/26 06:43:23;;;;;;;;;0.00;0.00;;;;;;;;5055502;28;45656;-76
2022/12/26 06:45:55;;;;;;;;;2.00;1.00;;;;;;;;5048779;28;45237;-78
2022/12/26 06:48:20;;;;;;;;;2.67;0.67;;;;;;;;5052664;28;45503;-76
2022/12/26 06:50:45;;;;;;;;;1.00;1.00;;;;;;;;5041237;28;45235;-77
2022/12/26 06:53:10;;;;;;;;;3.00;1.00;;;;;;;;5055853;28;45298;-77
2022/12/26 06:55:36;;;;;;;;;3.00;1.00;;;;;;;;5045342;28;45351;-76
2022/12/26 06:58:01;;;;;;;;;0.67;0.67;;;;;;;;5051343;28;45724;-77
2022/12/26 07:00:26;;;;;;;;;1.00;1.00;;;;;;;;5048049;28;45227;-77
2022/12/26 07:02:51;;;;;;;;;0.00;0.00;;;;;;;;5052945;28;45512;-77
2022/12/26 07:05:17;;;;;;;;;1.67;1.67;;;;;;;;5046847;28;45439;-76
2022/12/26 07:07:42;;;;;;;;;0.67;0.67;;;;;;;;5054518;28;45261;-76
2022/12/26 07:10:07;;;;;;;;;1.00;1.00;;;;;;;;5050131;28;45396;-76
2022/12/26 07:12:33;;;;;;;;;3.00;1.00;;;;;;;;5054809;28;45573;-76
2022/12/26 07:14:58;;;;;;;;;3.00;1.00;;;;;;;;5049699;28;45159;-76
2022/12/26 07:17:23;;;;;;;;;2.00;2.00;;;;;;;;5059107;28;45443;-76
2022/12/26 07:19:48;;;;;;;;;1.00;1.00;;;;;;;;5053697;28;45587;-76
2022/12/26 07:22:14;;;;;;;;;1.00;1.00;;;;;;;;5053753;28;45222;-75
2022/12/26 07:24:39;;;;;;;;;1.00;1.00;;;;;;;;5034556;28;47137;-76
2022/12/26 07:27:04;;;;;;;;;1.00;1.00;;;;;;;;5031709;28;45351;-76
2022/12/26 07:29:29;;;;;;;;;2.00;1.00;;;;;;;;5054216;28;45177;-76
2022/12/26 07:31:56;;;;;;;;;3.00;1.00;;;;;;;;5053455;28;45221;-76
2022/12/26 07:34:22;;;;;;;;;2.00;2.00;;;;;;;;5052649;28;47075;-76
2022/12/26 07:36:47;;;;;;;;;2.00;1.00;;;;;;;;5055003;28;45458;-75
2022/12/26 07:39:12;;;;;;;;;2.33;1.00;;;;;;;;5034905;28;45267;-76
2022/12/26 07:44:21;;;;;;;;;1.00;1.00;;;;;;;;5053245;28;45711;-76
2022/12/26 07:46:47;;;;;;;;;0.67;0.67;;;;;;;;5057259;28;45479;-76
2022/12/26 07:49:12;;;;;;;;;2.00;1.00;;;;;;;;5054465;28;45052;-76
2022/12/26 07:51:37;;;;;;;;;2.00;2.00;;;;;;;;5057959;28;45332;-76
2022/12/26 07:54:02;;;;;;;;;4.00;2.67;;;;;;;;5050463;28;45385;-76
2022/12/26 07:56:28;;;;;;;;;1.00;1.00;;;;;;;;5053671;28;45468;-79
2022/12/26 07:58:53;;;;;;;;;1.00;1.00;;;;;;;;5054078;28;45439;-76
2022/12/26 08:01:18;;;;;;;;;1.00;1.00;;;;;;;;5052392;28;44821;-76
2022/12/26 08:03:44;;;;;;;;;1.00;1.00;;;;;;;;5054031;28;45346;-76
2022/12/26 08:06:10;;;;;;;;;2.00;2.00;;;;;;;;5035869;28;45405;-76
2022/12/26 08:08:36;;;;;;;;;1.00;1.00;;;;;;;;5057508;28;45487;-76
2022/12/26 08:11:02;;;;;;;;;1.33;1.33;;;;;;;;5054960;28;45443;-75
2022/12/26 08:13:28;;;;;;;;;1.67;1.67;;;;;;;;5055940;28;45344;-74
2022/12/26 08:15:53;;;;;;;;;2.33;2.00;;;;;;;;5042370;28;45211;-77
2022/12/26 08:18:18;;;;;;;;;1.00;1.00;;;;;;;;5029106;28;45309;-76
2022/12/26 08:20:43;;;;;;;;;1.67;1.33;;;;;;;;5054112;28;45630;-76
2022/12/26 08:23:08;;;;;;;;;3.00;2.00;;;;;;;;5058793;28;45329;-76
2022/12/26 08:25:34;;;;;;;;;2.33;1.00;;;;;;;;5052752;28;44721;-76
2022/12/26 08:27:59;;;;;;;;;4.00;1.00;;;;;;;;5059403;28;45257;-76
2022/12/26 08:30:24;;;;;;;;;1.00;1.00;;;;;;;;5044878;28;45361;-76
2022/12/26 08:32:50;;;;;;;;;3.00;3.00;;;;;;;;5045311;28;46288;-76
2022/12/26 08:35:15;;;;;;;;;2.00;2.00;;;;;;;;5051953;28;44671;-75
2022/12/26 08:37:40;;;;;;;;;2.33;2.33;;;;;;;;5060698;28;45345;-76
2022/12/26 08:40:06;;;;;;;;;6.00;3.00;;;;;;;;5048144;28;45190;-76
2022/12/26 08:42:31;;;;;;;;;4.00;3.00;;;;;;;;5061042;28;45271;-76
2022/12/26 08:44:56;;;;;;;;;1.33;1.33;;;;;;;;5049173;28;45247;-76
2022/12/26 08:47:25;;;;;;;;;2.00;2.00;;;;;;;;5061339;28;45207;-75
2022/12/26 08:49:50;;;;;;;;;2.00;2.00;;;;;;;;5052591;28;45337;-76
2022/12/26 08:52:15;;;;;;;;;2.33;1.00;;;;;;;;5042879;28;46262;-76
2022/12/26 08:54:40;;;;;;;;;5.00;4.33;;;;;;;;5040194;28;45318;-76
2022/12/26 08:57:05;;;;;;;;;4.33;2.00;;;;;;;;5042677;28;45405;-76
2022/12/26 08:59:31;;;;;;;;;4.00;3.00;;;;;;;;5046713;28;45531;-76
2022/12/26 09:01:56;;;;;;;;;3.00;1.33;;;;;;;;5057224;28;45407;-75
2022/12/26 09:04:21;;;;;;;;;3.00;2.00;;;;;;;;5050514;28;45247;-75
2022/12/26 09:06:46;;;;;;;;;3.00;3.00;;;;;;;;5042735;28;45251;-75
2022/12/26 09:09:12;;;;;;;;;1.67;1.00;;;;;;;;5051724;28;45618;-75
2022/12/26 09:11:37;;;;;;;;;5.33;2.00;;;;;;;;5059205;28;45443;-76
2022/12/26 09:14:03;;;;;;;;;2.00;2.00;;;;;;;;5042149;28;45234;-75
2022/12/26 09:16:30;;;;;;;;;1.67;1.67;;;;;;;;5052933;28;45238;-75
2022/12/26 09:18:57;;;;;;;;;3.00;1.00;;;;;;;;5056272;28;45949;-75
2022/12/26 09:21:22;;;;;;;;;4.67;2.00;;;;;;;;5053614;28;45330;-75
2022/12/26 09:23:47;;;;;;;;;1.67;1.67;;;;;;;;5051882;28;45501;-75
2022/12/26 09:26:14;;;;;;;;;3.00;2.00;;;;;;;;5055003;28;45355;-75
2022/12/26 09:28:39;;;;;;;;;2.67;2.00;;;;;;;;5055441;28;45434;-74
2022/12/26 09:31:06;;;;;;;;;4.33;1.00;;;;;;;;5051188;28;46312;-75
2022/12/26 09:33:32;;;;;;;;;1.00;1.00;;;;;;;;5055487;28;45328;-75
2022/12/26 09:35:58;;;;;;;;;1.67;1.67;;;;;;;;5057340;28;45629;-72
2022/12/26 09:38:23;;;;;;;;;2.33;2.00;;;;;;;;5056838;28;44786;-76
2022/12/26 09:41:01;;;;;;;;;2.00;2.00;;;;;;;;5056652;28;45412;-74
2022/12/26 09:43:45;;;;;;;;;1.33;1.00;;;;;;;;5055050;28;45225;-74
2022/12/26 09:46:17;;;;;;;;;1.00;1.00;;;;;;;;5040627;28;45597;-72
2022/12/26 09:48:47;;;;;;;;;2.67;1.67;;;;;;;;5052490;28;45577;-74
2022/12/26 09:51:12;;;;;;;;;5.67;2.67;;;;;;;;5053597;28;45316;-73
2022/12/26 09:53:42;;;;;;;;;2.33;2.00;;;;;;;;5051573;28;45316;-73
2022/12/26 09:56:11;;;;;;;;;1.00;1.00;;;;;;;;5049523;28;45183;-73
2022/12/26 09:58:51;;;;;;;;;2.00;1.00;;;;;;;;5049260;28;45421;-75
2022/12/26 10:01:24;;;;;;;;;2.33;1.00;;;;;;;;5034617;28;47177;-75
2022/12/26 10:03:51;;;;;;;;;2.00;2.00;;;;;;;;5049815;28;45498;-73
2022/12/26 10:06:37;;;;;;;;;2.00;2.00;;;;;;;;5031011;28;44845;-73
2022/12/26 10:09:02;;;;;;;;;1.00;1.00;;;;;;;;5034440;28;45720;-73
2022/12/26 10:11:38;;;;;;;;;1.00;1.00;;;;;;;;5056935;28;46131;-72
2022/12/26 10:14:22;;;;;;;;;2.67;2.67;;;;;;;;5053532;28;44730;-72
2022/12/26 10:16:55;;;;;;;;;3.00;2.00;;;;;;;;5050698;28;45300;-72
2022/12/26 10:19:39;;;;;;;;;3.00;1.00;;;;;;;;5051038;28;45412;-72
2022/12/26 10:22:07;;;;;;;;;2.67;2.00;;;;;;;;5059134;28;45372;-73
2022/12/26 10:24:34;;;;;;;;;1.00;1.00;;;;;;;;5051492;28;45344;-71
2022/12/26 10:27:02;;;;;;;;;1.67;1.67;;;;;;;;5054186;28;45444;-71
2022/12/26 10:29:40;;;;;;;;;2.33;2.33;;;;;;;;5036463;28;46374;-71
2022/12/26 10:32:24;;;;;;;;;5.33;4.00;;;;;;;;5054893;28;45346;-71
2022/12/26 10:34:49;;;;;;;;;1.67;1.00;;;;;;;;5052720;28;45517;-71
2022/12/26 10:37:26;;;;;;;;;2.00;1.00;;;;;;;;5057277;28;45334;-71
2022/12/26 10:39:51;;;;;;;;;1.67;1.00;;;;;;;;5044698;28;45424;-72
2022/12/26 10:42:26;;;;;;;;;1.33;1.33;;;;;;;;5058233;28;46179;-72
2022/12/26 10:44:51;;;;;;;;;2.67;2.67;;;;;;;;5046447;28;45439;-72
2022/12/26 10:47:22;;;;;;;;;3.33;1.00;;;;;;;;5059552;28;45365;-72
2022/12/26 10:49:48;;;;;;;;;1.67;1.00;;;;;;;;5036732;28;46962;-73
2022/12/26 10:52:16;;;;;;;;;1.00;1.00;;;;;;;;5048724;28;46508;-72
2022/12/26 10:54:41;;;;;;;;;0.00;0.00;;;;;;;;5039061;28;45401;-73
2022/12/26 10:57:07;;;;;;;;;2.67;1.00;;;;;;;;5054661;28;45843;-73
2022/12/26 10:59:49;;;;;;;;;2.00;1.00;;;;;;;;5039048;28;45899;-73
2022/12/26 11:02:21;;;;;;;;;0.33;0.00;;;;;;;;5054515;28;45400;-73
2022/12/26 11:04:59;;;;;;;;;1.00;1.00;;;;;;;;5052434;28;45443;-72
2022/12/26 11:07:26;;;;;;;;;0.00;0.00;;;;;;;;5040760;28;45381;-72
2022/12/26 11:09:57;;;;;;;;;1.00;1.00;;;;;;;;5050454;28;45577;-72
2022/12/26 11:12:28;;;;;;;;;2.00;2.00;;;;;;;;5039885;28;45471;-72
2022/12/26 11:14:58;;;;;;;;;1.00;1.00;;;;;;;;5051569;28;45412;-73
2022/12/26 11:17:23;;;;;;;;;1.33;1.33;;;;;;;;5049914;28;45395;-73
2022/12/26 11:19:48;;;;;;;;;0.00;0.00;;;;;;;;5050961;28;45271;-73
2022/12/26 11:22:13;;;;;;;;;1.00;1.00;;;;;;;;5057668;28;45404;-72
2022/12/26 11:24:38;;;;;;;;;3.33;1.00;;;;;;;;5055546;28;45490;-72
2022/12/26 11:27:16;;;;;;;;;1.33;1.00;;;;;;;;5058002;28;45597;-72
2022/12/26 11:29:41;;;;;;;;;1.00;1.00;;;;;;;;5043702;28;45431;-73
2022/12/26 11:32:14;;;;;;;;;1.33;1.00;;;;;;;;5056977;28;46087;-72
2022/12/26 11:34:44;;;;;;;;;1.00;1.00;;;;;;;;5056857;28;45490;-72
2022/12/26 11:37:39;;;;;;;;;0.67;0.67;;;;;;;;5060585;28;45233;-73
2022/12/26 11:40:04;;;;;;;;;2.00;1.00;;;;;;;;5019801;28;47043;-73
2022/12/26 11:42:29;;;;;;;;;3.00;1.00;;;;;;;;5061936;28;45202;-73
2022/12/26 11:44:56;;;;;;;;;1.00;1.00;;;;;;;;5038967;28;45247;-73
2022/12/26 11:47:25;;;;;;;;;0.00;0.00;;;;;;;;5062646;28;45171;-73
2022/12/26 11:49:57;;;;;;;;;2.67;1.00;;;;;;;;5046030;28;45372;-73
2022/12/26 11:52:30;;;;;;;;;3.00;1.00;;;;;;;;5051919;28;46229;-73
2022/12/26 11:54:55;;;;;;;;;3.33;1.00;;;;;;;;5046986;28;45289;-74
2022/12/26 11:57:25;;;;;;;;;1.00;1.00;;;;;;;;5052512;28;45252;-75
2022/12/26 11:59:51;;;;;;;;;2.00;2.00;;;;;;;;5051527;28;45499;-76
2022/12/26 12:02:24;;;;;;;;;3.67;1.00;;;;;;;;5053348;28;45164;-76
2022/12/26 12:04:51;;;;;;;;;1.00;1.00;;;;;;;;5035588;28;45325;-76
2022/12/26 12:07:23;;;;;;;;;3.00;1.33;;;;;;;;5054386;28;45372;-75
2022/12/26 12:09:57;;;;;;;;;1.00;1.00;;;;;;;;5053869;28;45449;-76
2022/12/26 12:12:22;;;;;;;;;1.00;1.00;;;;;;;;5055143;28;46444;-76
2022/12/26 12:14:50;;;;;;;;;1.33;0.67;;;;;;;;5036501;28;45391;-76
2022/12/26 12:17:22;;;;;;;;;1.00;1.00;;;;;;;;5055963;28;45507;-77
2022/12/26 12:20:07;;;;;;;;;3.00;3.00;;;;;;;;5054082;28;45415;-76
2022/12/26 12:22:44;;;;;;;;;2.00;2.00;;;;;;;;5061483;28;45408;-76
2022/12/26 12:25:39;;;;;;;;;2.75;2.75;;;;;;;;5034234;28;45340;-76
2022/12/26 12:28:24;;;;;;;;;2.25;2.00;;;;;;;;4999013;28;45520;-77
2022/12/26 12:30:58;;;;;;;;;1.00;1.00;;;;;;;;5047576;28;45295;-77
2022/12/26 12:33:31;;;;;;;;;2.00;2.00;;;;;;;;5056869;28;46443;-78
2022/12/26 12:36:16;;;;;;;;;2.25;2.00;;;;;;;;5040698;28;45777;-77
2022/12/26 12:39:05;;;;;;;;;1.00;0.75;;;;;;;;5040572;28;45257;-78
2022/12/26 12:41:49;;;;;;;;;2.00;2.00;;;;;;;;5031139;28;45237;-79
2022/12/26 12:44:18;;;;;;;;;1.00;1.00;;;;;;;;5052943;28;45430;-79
2022/12/26 12:46:52;;;;;;;;;3.00;1.75;;;;;;;;5039239;28;45614;-80
2022/12/26 12:49:25;;;;;;;;;2.00;0.75;;;;;;;;5047264;28;45434;-79
2022/12/26 12:52:09;;;;;;;;;2.00;0.75;;;;;;;;5061123;28;45483;-78
2022/12/26 12:54:38;;;;;;;;;0.00;0.00;;;;;;;;5048470;28;47095;-78
2022/12/26 12:57:22;;;;;;;;;1.00;1.00;;;;;;;;5057687;28;45231;-79
2022/12/26 12:59:49;;;;;;;;;1.00;1.00;;;;;;;;5051879;28;45412;-79
2022/12/26 13:02:27;;;;;;;;;1.00;1.00;;;;;;;;5050985;28;44671;-79
2022/12/26 13:04:58;;;;;;;;;4.00;2.00;;;;;;;;5051807;28;45454;-79
2022/12/26 13:07:29;;;;;;;;;4.75;1.00;;;;;;;;5053069;28;45329;-80
2022/12/26 13:09:57;;;;;;;;;2.75;2.00;;;;;;;;5040519;28;44822;-80
2022/12/26 13:12:28;;;;;;;;;3.50;1.00;;;;;;;;5053927;28;44774;-80
2022/12/26 13:14:56;;;;;;;;;2.00;1.00;;;;;;;;5050940;28;46366;-80
2022/12/26 13:17:26;;;;;;;;;4.25;1.00;;;;;;;;5036593;28;45806;-79
2022/12/26 13:19:57;;;;;;;;;2.00;1.00;;;;;;;;5053209;28;45328;-79
2022/12/26 13:24:22;;;;;;;;;1.75;1.75;;;;;;;;5042155;28;46037;-79
2022/12/26 13:25:17;;;;;;;;;2.00;2.00;;;;;;;;5053042;28;45325;-79
2022/12/26 13:27:45;;;;;;;;;2.75;2.75;;;;;;;;5058081;28;45355;-79
2022/12/26 13:30:15;;;;;;;;;2.25;1.00;;;;;;;;5050194;28;45215;-79
2022/12/26 13:32:40;;;;;;;;;1.75;1.75;;;;;;;;5041490;28;46625;-79
2022/12/26 13:35:25;;;;;;;;;2.50;1.75;;;;;;;;5052820;28;45283;-79
2022/12/26 13:37:52;;;;;;;;;1.00;1.00;;;;;;;;5033611;28;45368;-79
2022/12/26 13:40:19;;;;;;;;;0.25;0.25;;;;;;;;5049032;28;45496;-78
2022/12/26 13:45:34;;;;;;;;;2.00;2.00;;;;;;;;5050618;28;45304;-78
2022/12/26 13:48:00;;;;;;;;;2.00;0.00;;;;;;;;5039790;28;45377;-79
2022/12/26 13:50:45;;;;;;;;;0.00;0.00;;;;;;;;5042600;28;45345;-78
2022/12/26 13:53:36;;;;;;;;;1.75;1.00;;;;;;;;5052926;28;45261;-78
2022/12/26 13:56:16;;;;;;;;;2.00;2.00;;;;;;;;5049517;28;46801;-77
2022/12/26 13:58:48;;;;;;;;;3.00;1.00;;;;;;;;5030088;28;45306;-78
2022/12/26 14:01:16;;;;;;;;;1.75;1.75;;;;;;;;5050468;28;45511;-77
2022/12/26 14:03:42;;;;;;;;;2.00;2.00;;;;;;;;5037542;28;45738;-77
2022/12/26 14:06:10;;;;;;;;;2.00;2.00;;;;;;;;5051958;28;45195;-77
2022/12/26 14:08:35;;;;;;;;;8.25;6.00;;;;;;;;5056452;28;45594;-78
2022/12/26 14:11:00;;;;;;;;;1.67;1.67;;;;;;;;5040375;28;45297;-77
2022/12/26 14:13:44;;;;;;;;;2.00;2.00;;;;;;;;5035718;28;45765;-78
2022/12/26 14:16:32;;;;;;;;;1.25;1.25;;;;;;;;5047571;28;45316;-77
2022/12/26 14:19:16;;;;;;;;;3.50;2.00;;;;;;;;5017797;28;45820;-76
2022/12/26 14:21:50;;;;;;;;;2.25;2.00;;;;;;;;5037122;28;45401;-76
2022/12/26 14:24:41;;;;;;;;;7.75;3.00;;;;;;;;5048714;28;45471;-78
2022/12/26 14:27:25;;;;;;;;;8.75;7.00;;;;;;;;5037548;28;46484;-77
2022/12/26 14:29:50;;;;;;;;;3.00;1.25;;;;;;;;5034873;28;45434;-77
2022/12/26 14:32:34;;;;;;;;;3.00;2.25;;;;;;;;5038886;28;45319;-76
2022/12/26 14:35:04;;;;;;;;;4.00;2.00;;;;;;;;5052976;28;45455;-77
2022/12/26 14:37:35;;;;;;;;;1.75;1.75;;;;;;;;5033714;28;46436;-76
2022/12/26 14:40:13;;;;;;;;;4.50;4.00;;;;;;;;5044889;28;45451;-76
2022/12/26 14:43:16;;;;;;;;;1.50;1.50;;;;;;;;5040806;28;45344;-77
2022/12/26 14:45:46;;;;;;;;;2.00;2.00;;;;;;;;4998149;28;46038;-78
2022/12/26 14:48:17;;;;;;;;;3.00;2.00;;;;;;;;5053198;28;46059;-77
2022/12/26 14:50:45;;;;;;;;;3.00;1.25;;;;;;;;5029287;28;45592;-77
2022/12/26 14:53:28;;;;;;;;;1.75;1.75;;;;;;;;5052317;28;45286;-76
2022/12/26 14:56:15;;;;;;;;;3.25;3.25;;;;;;;;5047085;28;45365;-76
2022/12/26 14:58:42;;;;;;;;;2.00;2.00;;;;;;;;5048938;28;45392;-76
2022/12/26 15:01:07;;;;;;;;;2.00;2.00;;;;;;;;5036907;28;45442;-76
2022/12/26 15:03:43;;;;;;;;;4.75;3.75;;;;;;;;5039290;28;45349;-76
2022/12/26 15:06:14;;;;;;;;;3.50;2.25;;;;;;;;5054044;28;45617;-75
2022/12/26 15:08:59;;;;;;;;;1.00;1.00;;;;;;;;5056108;28;45414;-75
2022/12/26 15:11:50;;;;;;;;;4.25;3.00;;;;;;;;5051405;28;45403;-75
2022/12/26 15:14:22;;;;;;;;;5.25;3.00;;;;;;;;5014589;28;45541;-76
2022/12/26 15:16:50;;;;;;;;;4.25;4.25;;;;;;;;5054735;28;45364;-76
2022/12/26 15:19:40;;;;;;;;;9.25;5.25;;;;;;;;5055302;28;45444;-75
2022/12/26 15:22:12;;;;;;;;;3.00;1.00;;;;;;;;5061227;28;45291;-75
2022/12/26 15:24:49;;;;;;;;;1.50;1.50;;;;;;;;5041790;28;46004;-75
2022/12/26 15:27:33;;;;;;;;;5.00;3.00;;;;;;;;5057411;28;45420;-76
2022/12/26 15:30:09;;;;;;;;;1.00;1.00;;;;;;;;5050952;28;45334;-76
2022/12/26 15:32:38;;;;;;;;;2.00;2.00;;;;;;;;5042445;28;45184;-76
2022/12/26 15:35:11;;;;;;;;;3.00;3.00;;;;;;;;5040247;28;45396;-76
2022/12/26 15:37:58;;;;;;;;;3.00;2.00;;;;;;;;5059747;28;45524;-75
2022/12/26 15:40:26;;;;;;;;;1.00;1.00;;;;;;;;5034422;28;48086;-76
2022/12/26 15:43:09;;;;;;;;;3.50;1.25;;;;;;;;5060012;28;45336;-76
2022/12/26 15:45:50;;;;;;;;;4.75;2.50;;;;;;;;5048431;28;45391;-76
2022/12/26 15:48:18;;;;;;;;;4.50;3.00;;;;;;;;5058736;28;45231;-76
2022/12/26 15:50:59;;;;;;;;;1.25;1.25;;;;;;;;5049054;28;45348;-76
2022/12/26 15:53:36;;;;;;;;;3.25;2.50;;;;;;;;5055918;28;45416;-76
2022/12/26 15:56:07;;;;;;;;;4.00;2.75;;;;;;;;5057776;28;45339;-75
2022/12/26 15:58:33;;;;;;;;;3.75;2.50;;;;;;;;5040359;28;45340;-76
2022/12/26 16:00:58;;;;;;;;;3.50;2.00;;;;;;;;5053968;28;46377;-76
2022/12/26 16:03:44;;;;;;;;;1.25;1.25;;;;;;;;5058535;28;45288;-76
2022/12/26 16:06:12;;;;;;;;;3.00;2.00;;;;;;;;5056447;28;45472;-76
2022/12/26 16:08:43;;;;;;;;;5.00;2.50;;;;;;;;5055266;28;45344;-76
2022/12/26 16:11:22;;;;;;;;;1.75;1.75;;;;;;;;5052058;28;46115;-75
2022/12/26 16:13:53;;;;;;;;;1.25;1.00;;;;;;;;5054673;28;45368;-76
2022/12/26 16:16:32;;;;;;;;;2.25;1.75;;;;;;;;5043571;28;44765;-76
2022/12/26 16:19:13;;;;;;;;;4.50;2.75;;;;;;;;5047840;28;45632;-76
2022/12/26 16:24:22;;;;;;;;;1.75;1.75;;;;;;;;5053584;28;45636;-75
2022/12/26 16:26:47;;;;;;;;;2.00;2.00;;;;;;;;5056189;28;45557;-76
2022/12/26 16:29:15;;;;;;;;;2.00;0.00;;;;;;;;5038607;28;47468;-76
2022/12/26 16:31:40;;;;;;;;;3.75;1.25;;;;;;;;5041039;28;46938;-76
2022/12/26 16:34:05;;;;;;;;;5.00;1.25;;;;;;;;5052926;28;45324;-75
2022/12/26 16:36:34;;;;;;;;;4.75;2.00;;;;;;;;5036567;28;45425;-75
2022/12/26 16:38:59;;;;;;;;;2.75;2.00;;;;;;;;5054634;28;45510;-76
2022/12/26 16:41:26;;;;;;;;;6.75;4.00;;;;;;;;5052759;28;45478;-76
2022/12/26 16:43:56;;;;;;;;;4.00;3.00;;;;;;;;5057086;28;45379;-76
2022/12/26 16:46:26;;;;;;;;;3.00;2.00;;;;;;;;5053392;28;45275;-75
2022/12/26 16:48:53;;;;;;;;;2.25;2.00;;;;;;;;5033694;28;45542;-75
2022/12/26 16:51:33;;;;;;;;;2.75;2.75;;;;;;;;5028473;28;45443;-75
2022/12/26 16:54:17;;;;;;;;;4.50;3.00;;;;;;;;5035354;28;46010;-75
2022/12/26 16:56:46;;;;;;;;;3.00;2.25;;;;;;;;5026968;28;45567;-75
2022/12/26 16:59:13;;;;;;;;;3.00;3.00;;;;;;;;5032467;28;45444;-75
2022/12/26 17:01:39;;;;;;;;;4.75;4.00;;;;;;;;5037717;28;46172;-74
2022/12/26 17:04:04;;;;;;;;;8.00;5.00;;;;;;;;5031329;28;44700;-75
2022/12/26 17:06:34;;;;;;;;;8.75;4.75;;;;;;;;5031362;28;45209;-75
2022/12/26 17:09:10;;;;;;;;;6.25;4.50;;;;;;;;5034090;28;45427;-75